sensor_id;sensor_type;location;lat;lon;timestamp;P1;durP1;ratioP1;P2;durP2;ratioP2
76290;SDS011;65100;46.884;17.410;2023-07-28T00:01:24;7.17;;;3.00;;
76290;SDS011;65100;46.884;17.410;2023-07-28T00:03:50;7.10;;;3.13;;
76290;SDS011;65100;46.884;17.410;2023-07-28T00:06:15;5.90;;;2.90;;
76290;SDS011;65100;46.884;17.410;2023-07-28T00:08:40;6.10;;;3.10;;
76290;SDS011;65100;46.884;17.410;2023-07-28T00:11:12;6.30;;;3.00;;
76290;SDS011;65100;46.884;17.410;2023-07-28T00:13:39;6.35;;;3.03;;
76290;SDS011;65100;46.884;17.410;2023-07-28T00:16:05;6.13;;;3.00;;
76290;SDS011;65100;46.884;17.410;2023-07-28T00:18:31;6.90;;;2.83;;
76290;SDS011;65100;46.884;17.410;2023-07-28T00:20:56;6.67;;;3.30;;
76290;SDS011;65100;46.884;17.410;2023-07-28T00:23:22;6.40;;;3.10;;
76290;SDS011;65100;46.884;17.410;2023-07-28T00:25:48;6.70;;;2.60;;
76290;SDS011;65100;46.884;17.410;2023-07-28T00:28:13;6.03;;;2.77;;
76290;SDS011;65100;46.884;17.410;2023-07-28T00:30:39;6.53;;;3.00;;
76290;SDS011;65100;46.884;17.410;2023-07-28T00:33:05;6.30;;;3.03;;
76290;SDS011;65100;46.884;17.410;2023-07-28T00:35:30;6.37;;;3.00;;
76290;SDS011;65100;46.884;17.410;2023-07-28T00:37:56;7.25;;;2.90;;
76290;SDS011;65100;46.884;17.410;2023-07-28T00:40:22;7.70;;;2.90;;
76290;SDS011;65100;46.884;17.410;2023-07-28T00:42:48;8.07;;;3.20;;
76290;SDS011;65100;46.884;17.410;2023-07-28T00:45:13;5.73;;;2.50;;
76290;SDS011;65100;46.884;17.410;2023-07-28T00:47:39;6.20;;;2.97;;
76290;SDS011;65100;46.884;17.410;2023-07-28T00:50:05;6.22;;;2.97;;
76290;SDS011;65100;46.884;17.410;2023-07-28T00:52:31;6.22;;;2.90;;
76290;SDS011;65100;46.884;17.410;2023-07-28T00:54:57;7.27;;;2.90;;
76290;SDS011;65100;46.884;17.410;2023-07-28T00:57:22;6.88;;;2.80;;
76290;SDS011;65100;46.884;17.410;2023-07-28T00:59:48;6.33;;;3.07;;
76290;SDS011;65100;46.884;17.410;2023-07-28T01:02:13;7.70;;;3.10;;
76290;SDS011;65100;46.884;17.410;2023-07-28T01:04:39;7.05;;;3.20;;
76290;SDS011;65100;46.884;17.410;2023-07-28T01:07:09;6.30;;;2.83;;
76290;SDS011;65100;46.884;17.410;2023-07-28T01:09:50;6.73;;;3.30;;
76290;SDS011;65100;46.884;17.410;2023-07-28T01:12:23;6.55;;;2.97;;
76290;SDS011;65100;46.884;17.410;2023-07-28T01:14:49;6.47;;;3.00;;
76290;SDS011;65100;46.884;17.410;2023-07-28T01:17:14;7.33;;;3.17;;
76290;SDS011;65100;46.884;17.410;2023-07-28T01:19:40;6.68;;;2.97;;
76290;SDS011;65100;46.884;17.410;2023-07-28T01:22:16;6.95;;;2.90;;
76290;SDS011;65100;46.884;17.410;2023-07-28T01:27:11;7.35;;;3.00;;
76290;SDS011;65100;46.884;17.410;2023-07-28T01:29:37;6.20;;;2.92;;
76290;SDS011;65100;46.884;17.410;2023-07-28T01:32:03;7.03;;;3.00;;
76290;SDS011;65100;46.884;17.410;2023-07-28T01:34:29;6.22;;;3.10;;
76290;SDS011;65100;46.884;17.410;2023-07-28T01:40:22;6.70;;;2.90;;
76290;SDS011;65100;46.884;17.410;2023-07-28T01:42:47;6.75;;;3.05;;
76290;SDS011;65100;46.884;17.410;2023-07-28T01:45:13;9.10;;;3.30;;
76290;SDS011;65100;46.884;17.410;2023-07-28T01:47:38;7.13;;;2.93;;
76290;SDS011;65100;46.884;17.410;2023-07-28T01:50:04;7.93;;;3.33;;
76290;SDS011;65100;46.884;17.410;2023-07-28T01:52:29;7.03;;;3.00;;
76290;SDS011;65100;46.884;17.410;2023-07-28T01:54:55;6.30;;;3.20;;
76290;SDS011;65100;46.884;17.410;2023-07-28T01:57:21;6.30;;;3.20;;
76290;SDS011;65100;46.884;17.410;2023-07-28T01:59:49;7.80;;;3.00;;
76290;SDS011;65100;46.884;17.410;2023-07-28T02:02:14;7.40;;;2.80;;
76290;SDS011;65100;46.884;17.410;2023-07-28T02:04:40;7.20;;;2.70;;
76290;SDS011;65100;46.884;17.410;2023-07-28T02:07:05;7.27;;;2.90;;
76290;SDS011;65100;46.884;17.410;2023-07-28T02:09:31;6.63;;;2.70;;
76290;SDS011;65100;46.884;17.410;2023-07-28T02:11:56;6.20;;;2.87;;
76290;SDS011;65100;46.884;17.410;2023-07-28T02:14:21;6.90;;;2.80;;
76290;SDS011;65100;46.884;17.410;2023-07-28T02:16:47;6.23;;;2.70;;
76290;SDS011;65100;46.884;17.410;2023-07-28T02:19:12;6.15;;;3.03;;
76290;SDS011;65100;46.884;17.410;2023-07-28T02:21:38;6.37;;;2.77;;
76290;SDS011;65100;46.884;17.410;2023-07-28T02:24:03;6.73;;;2.97;;
76290;SDS011;65100;46.884;17.410;2023-07-28T02:26:29;6.18;;;2.88;;
76290;SDS011;65100;46.884;17.410;2023-07-28T02:28:55;6.50;;;2.97;;
76290;SDS011;65100;46.884;17.410;2023-07-28T02:31:20;6.38;;;2.78;;
76290;SDS011;65100;46.884;17.410;2023-07-28T02:33:46;6.50;;;3.00;;
76290;SDS011;65100;46.884;17.410;2023-07-28T02:36:11;6.23;;;3.07;;
76290;SDS011;65100;46.884;17.410;2023-07-28T02:38:36;6.83;;;3.00;;
76290;SDS011;65100;46.884;17.410;2023-07-28T02:41:02;6.53;;;3.30;;
76290;SDS011;65100;46.884;17.410;2023-07-28T02:43:29;6.25;;;3.03;;
76290;SDS011;65100;46.884;17.410;2023-07-28T02:45:55;6.57;;;3.00;;
76290;SDS011;65100;46.884;17.410;2023-07-28T02:48:21;7.15;;;3.20;;
76290;SDS011;65100;46.884;17.410;2023-07-28T02:50:48;6.70;;;3.15;;
76290;SDS011;65100;46.884;17.410;2023-07-28T02:53:15;6.75;;;3.30;;
76290;SDS011;65100;46.884;17.410;2023-07-28T02:55:44;6.90;;;3.37;;
76290;SDS011;65100;46.884;17.410;2023-07-28T02:58:10;6.43;;;3.00;;
76290;SDS011;65100;46.884;17.410;2023-07-28T03:00:39;6.50;;;3.30;;
76290;SDS011;65100;46.884;17.410;2023-07-28T03:03:06;9.07;;;3.10;;
76290;SDS011;65100;46.884;17.410;2023-07-28T03:05:32;7.45;;;3.10;;
76290;SDS011;65100;46.884;17.410;2023-07-28T03:07:58;9.50;;;3.37;;
76290;SDS011;65100;46.884;17.410;2023-07-28T03:10:24;7.50;;;3.38;;
76290;SDS011;65100;46.884;17.410;2023-07-28T03:12:50;8.07;;;3.10;;
76290;SDS011;65100;46.884;17.410;2023-07-28T03:15:15;7.33;;;3.37;;
76290;SDS011;65100;46.884;17.410;2023-07-28T03:17:41;6.43;;;3.30;;
76290;SDS011;65100;46.884;17.410;2023-07-28T03:20:06;8.33;;;3.43;;
76290;SDS011;65100;46.884;17.410;2023-07-28T03:22:32;7.03;;;3.30;;
76290;SDS011;65100;46.884;17.410;2023-07-28T03:24:58;8.83;;;3.37;;
76290;SDS011;65100;46.884;17.410;2023-07-28T03:27:23;6.87;;;3.30;;
76290;SDS011;65100;46.884;17.410;2023-07-28T03:29:50;6.50;;;3.35;;
76290;SDS011;65100;46.884;17.410;2023-07-28T03:32:15;8.10;;;3.53;;
76290;SDS011;65100;46.884;17.410;2023-07-28T03:34:41;7.70;;;3.40;;
76290;SDS011;65100;46.884;17.410;2023-07-28T03:37:06;7.27;;;3.30;;
76290;SDS011;65100;46.884;17.410;2023-07-28T03:39:32;7.05;;;3.47;;
76290;SDS011;65100;46.884;17.410;2023-07-28T03:41:57;7.93;;;3.27;;
76290;SDS011;65100;46.884;17.410;2023-07-28T03:44:23;8.57;;;3.53;;
76290;SDS011;65100;46.884;17.410;2023-07-28T03:46:49;6.53;;;3.30;;
76290;SDS011;65100;46.884;17.410;2023-07-28T03:49:14;8.53;;;3.57;;
76290;SDS011;65100;46.884;17.410;2023-07-28T03:51:40;7.85;;;3.50;;
76290;SDS011;65100;46.884;17.410;2023-07-28T03:54:05;7.77;;;3.37;;
76290;SDS011;65100;46.884;17.410;2023-07-28T03:56:31;9.03;;;3.40;;
76290;SDS011;65100;46.884;17.410;2023-07-28T03:58:56;8.23;;;3.60;;
76290;SDS011;65100;46.884;17.410;2023-07-28T04:01:21;6.60;;;3.57;;
76290;SDS011;65100;46.884;17.410;2023-07-28T04:03:47;7.57;;;3.70;;
76290;SDS011;65100;46.884;17.410;2023-07-28T04:06:13;8.23;;;3.78;;
76290;SDS011;65100;46.884;17.410;2023-07-28T04:08:41;8.93;;;3.77;;
76290;SDS011;65100;46.884;17.410;2023-07-28T04:11:07;8.10;;;3.78;;
76290;SDS011;65100;46.884;17.410;2023-07-28T04:13:33;7.57;;;3.67;;
76290;SDS011;65100;46.884;17.410;2023-07-28T04:15:59;7.25;;;3.67;;
76290;SDS011;65100;46.884;17.410;2023-07-28T04:18:25;9.00;;;3.78;;
76290;SDS011;65100;46.884;17.410;2023-07-28T04:20:50;7.50;;;3.73;;
76290;SDS011;65100;46.884;17.410;2023-07-28T04:23:16;7.80;;;3.83;;
76290;SDS011;65100;46.884;17.410;2023-07-28T04:25:41;13.47;;;6.87;;
76290;SDS011;65100;46.884;17.410;2023-07-28T04:28:06;20.55;;;11.00;;
76290;SDS011;65100;46.884;17.410;2023-07-28T04:30:32;21.33;;;10.77;;
76290;SDS011;65100;46.884;17.410;2023-07-28T04:32:57;21.90;;;10.40;;
76290;SDS011;65100;46.884;17.410;2023-07-28T04:35:23;51.25;;;24.63;;
76290;SDS011;65100;46.884;17.410;2023-07-28T04:37:49;49.80;;;19.10;;
76290;SDS011;65100;46.884;17.410;2023-07-28T04:40:14;28.53;;;12.67;;
76290;SDS011;65100;46.884;17.410;2023-07-28T04:42:39;14.32;;;5.57;;
76290;SDS011;65100;46.884;17.410;2023-07-28T04:45:05;8.33;;;3.60;;
76290;SDS011;65100;46.884;17.410;2023-07-28T04:47:31;7.53;;;3.50;;
76290;SDS011;65100;46.884;17.410;2023-07-28T04:49:57;7.30;;;3.57;;
76290;SDS011;65100;46.884;17.410;2023-07-28T04:52:23;7.03;;;3.50;;
76290;SDS011;65100;46.884;17.410;2023-07-28T04:54:48;7.77;;;3.83;;
76290;SDS011;65100;46.884;17.410;2023-07-28T04:57:14;9.50;;;4.60;;
76290;SDS011;65100;46.884;17.410;2023-07-28T04:59:39;6.37;;;3.07;;
76290;SDS011;65100;46.884;17.410;2023-07-28T05:02:05;6.87;;;3.40;;
76290;SDS011;65100;46.884;17.410;2023-07-28T05:04:30;9.10;;;3.58;;
76290;SDS011;65100;46.884;17.410;2023-07-28T05:06:56;7.10;;;3.43;;
76290;SDS011;65100;46.884;17.410;2023-07-28T05:09:21;7.37;;;3.70;;
76290;SDS011;65100;46.884;17.410;2023-07-28T05:11:47;8.85;;;4.32;;
76290;SDS011;65100;46.884;17.410;2023-07-28T05:14:12;9.83;;;4.60;;
76290;SDS011;65100;46.884;17.410;2023-07-28T05:16:38;8.35;;;4.05;;
76290;SDS011;65100;46.884;17.410;2023-07-28T05:19:07;7.77;;;3.70;;
76290;SDS011;65100;46.884;17.410;2023-07-28T05:21:32;7.72;;;4.00;;
76290;SDS011;65100;46.884;17.410;2023-07-28T05:23:58;7.80;;;4.23;;
76290;SDS011;65100;46.884;17.410;2023-07-28T05:26:24;8.10;;;4.00;;
76290;SDS011;65100;46.884;17.410;2023-07-28T05:28:49;8.83;;;4.40;;
76290;SDS011;65100;46.884;17.410;2023-07-28T05:31:15;8.77;;;3.70;;
76290;SDS011;65100;46.884;17.410;2023-07-28T05:33:41;9.17;;;4.57;;
76290;SDS011;65100;46.884;17.410;2023-07-28T05:36:06;8.27;;;3.90;;
76290;SDS011;65100;46.884;17.410;2023-07-28T05:38:32;8.98;;;4.05;;
76290;SDS011;65100;46.884;17.410;2023-07-28T05:40:58;7.70;;;3.87;;
76290;SDS011;65100;46.884;17.410;2023-07-28T05:43:26;8.60;;;4.07;;
76290;SDS011;65100;46.884;17.410;2023-07-28T05:45:52;10.52;;;4.10;;
76290;SDS011;65100;46.884;17.410;2023-07-28T05:48:18;8.45;;;4.45;;
76290;SDS011;65100;46.884;17.410;2023-07-28T05:50:43;8.47;;;4.20;;
76290;SDS011;65100;46.884;17.410;2023-07-28T05:53:09;10.50;;;3.93;;
76290;SDS011;65100;46.884;17.410;2023-07-28T05:55:34;8.85;;;3.90;;
76290;SDS011;65100;46.884;17.410;2023-07-28T05:57:59;8.00;;;3.63;;
76290;SDS011;65100;46.884;17.410;2023-07-28T06:00:25;7.70;;;4.10;;
76290;SDS011;65100;46.884;17.410;2023-07-28T06:02:51;7.60;;;3.63;;
76290;SDS011;65100;46.884;17.410;2023-07-28T06:05:17;8.70;;;3.40;;
76290;SDS011;65100;46.884;17.410;2023-07-28T06:07:43;9.40;;;3.70;;
76290;SDS011;65100;46.884;17.410;2023-07-28T06:10:08;7.37;;;3.60;;
76290;SDS011;65100;46.884;17.410;2023-07-28T06:12:34;7.40;;;3.50;;
76290;SDS011;65100;46.884;17.410;2023-07-28T06:14:59;8.17;;;3.60;;
76290;SDS011;65100;46.884;17.410;2023-07-28T06:17:25;6.70;;;3.50;;
76290;SDS011;65100;46.884;17.410;2023-07-28T06:19:52;8.25;;;3.45;;
76290;SDS011;65100;46.884;17.410;2023-07-28T06:22:17;6.63;;;3.83;;
76290;SDS011;65100;46.884;17.410;2023-07-28T06:24:43;9.43;;;3.93;;
76290;SDS011;65100;46.884;17.410;2023-07-28T06:27:08;8.60;;;3.90;;
76290;SDS011;65100;46.884;17.410;2023-07-28T06:29:35;7.20;;;3.40;;
76290;SDS011;65100;46.884;17.410;2023-07-28T06:32:00;6.93;;;4.00;;
76290;SDS011;65100;46.884;17.410;2023-07-28T06:34:26;7.73;;;3.60;;
76290;SDS011;65100;46.884;17.410;2023-07-28T06:36:52;7.43;;;3.60;;
76290;SDS011;65100;46.884;17.410;2023-07-28T06:39:17;7.40;;;3.83;;
76290;SDS011;65100;46.884;17.410;2023-07-28T06:41:43;7.70;;;4.00;;
76290;SDS011;65100;46.884;17.410;2023-07-28T06:44:08;8.23;;;4.30;;
76290;SDS011;65100;46.884;17.410;2023-07-28T06:46:34;7.30;;;3.70;;
76290;SDS011;65100;46.884;17.410;2023-07-28T06:48:59;7.03;;;3.40;;
76290;SDS011;65100;46.884;17.410;2023-07-28T06:51:25;7.15;;;3.50;;
76290;SDS011;65100;46.884;17.410;2023-07-28T06:54:11;7.87;;;3.47;;
76290;SDS011;65100;46.884;17.410;2023-07-28T06:56:37;7.88;;;3.70;;
76290;SDS011;65100;46.884;17.410;2023-07-28T06:59:03;8.30;;;3.50;;
76290;SDS011;65100;46.884;17.410;2023-07-28T07:01:30;7.20;;;3.60;;
76290;SDS011;65100;46.884;17.410;2023-07-28T07:03:56;8.60;;;3.70;;
76290;SDS011;65100;46.884;17.410;2023-07-28T07:06:21;7.57;;;3.60;;
76290;SDS011;65100;46.884;17.410;2023-07-28T07:08:46;7.50;;;3.43;;
76290;SDS011;65100;46.884;17.410;2023-07-28T07:11:12;7.25;;;3.75;;
76290;SDS011;65100;46.884;17.410;2023-07-28T07:13:38;7.53;;;3.97;;
76290;SDS011;65100;46.884;17.410;2023-07-28T07:16:03;7.60;;;3.93;;
76290;SDS011;65100;46.884;17.410;2023-07-28T07:18:29;7.57;;;3.60;;
76290;SDS011;65100;46.884;17.410;2023-07-28T07:20:54;6.97;;;3.53;;
76290;SDS011;65100;46.884;17.410;2023-07-28T07:23:20;6.87;;;3.50;;
76290;SDS011;65100;46.884;17.410;2023-07-28T07:25:45;7.20;;;3.70;;
76290;SDS011;65100;46.884;17.410;2023-07-28T07:28:14;8.13;;;3.55;;
76290;SDS011;65100;46.884;17.410;2023-07-28T07:30:39;6.57;;;3.40;;
76290;SDS011;65100;46.884;17.410;2023-07-28T07:33:05;7.77;;;3.70;;
76290;SDS011;65100;46.884;17.410;2023-07-28T07:35:30;7.43;;;3.60;;
76290;SDS011;65100;46.884;17.410;2023-07-28T07:38:01;12.48;;;3.35;;
76290;SDS011;65100;46.884;17.410;2023-07-28T07:40:26;7.20;;;3.47;;
76290;SDS011;65100;46.884;17.410;2023-07-28T07:42:52;6.55;;;3.30;;
76290;SDS011;65100;46.884;17.410;2023-07-28T07:45:18;6.87;;;3.13;;
76290;SDS011;65100;46.884;17.410;2023-07-28T07:47:43;7.83;;;3.50;;
76290;SDS011;65100;46.884;17.410;2023-07-28T07:50:09;6.38;;;3.58;;
76290;SDS011;65100;46.884;17.410;2023-07-28T07:52:36;6.78;;;3.35;;
76290;SDS011;65100;46.884;17.410;2023-07-28T07:55:02;7.27;;;3.80;;
76290;SDS011;65100;46.884;17.410;2023-07-28T07:57:28;7.80;;;3.70;;
76290;SDS011;65100;46.884;17.410;2023-07-28T07:59:54;8.25;;;3.40;;
76290;SDS011;65100;46.884;17.410;2023-07-28T08:02:20;5.87;;;3.10;;
76290;SDS011;65100;46.884;17.410;2023-07-28T08:04:45;9.00;;;3.37;;
76290;SDS011;65100;46.884;17.410;2023-07-28T08:07:11;9.07;;;3.47;;
76290;SDS011;65100;46.884;17.410;2023-07-28T08:09:36;8.20;;;3.30;;
76290;SDS011;65100;46.884;17.410;2023-07-28T08:12:02;6.75;;;3.20;;
76290;SDS011;65100;46.884;17.410;2023-07-28T08:14:28;6.10;;;3.00;;
76290;SDS011;65100;46.884;17.410;2023-07-28T08:16:53;6.50;;;2.97;;
76290;SDS011;65100;46.884;17.410;2023-07-28T08:19:19;7.93;;;3.60;;
76290;SDS011;65100;46.884;17.410;2023-07-28T08:21:45;10.35;;;3.25;;
76290;SDS011;65100;46.884;17.410;2023-07-28T08:24:10;7.13;;;3.20;;
76290;SDS011;65100;46.884;17.410;2023-07-28T08:26:37;9.25;;;2.95;;
76290;SDS011;65100;46.884;17.410;2023-07-28T08:29:02;8.30;;;3.13;;
76290;SDS011;65100;46.884;17.410;2023-07-28T08:31:28;6.97;;;3.10;;
76290;SDS011;65100;46.884;17.410;2023-07-28T08:33:53;7.13;;;3.13;;
76290;SDS011;65100;46.884;17.410;2023-07-28T08:36:19;6.43;;;3.00;;
76290;SDS011;65100;46.884;17.410;2023-07-28T08:38:44;6.27;;;3.10;;
76290;SDS011;65100;46.884;17.410;2023-07-28T08:41:10;6.07;;;3.13;;
76290;SDS011;65100;46.884;17.410;2023-07-28T08:43:36;6.53;;;3.40;;
76290;SDS011;65100;46.884;17.410;2023-07-28T08:46:01;6.80;;;3.10;;
76290;SDS011;65100;46.884;17.410;2023-07-28T08:48:28;6.90;;;3.30;;
76290;SDS011;65100;46.884;17.410;2023-07-28T08:50:54;6.20;;;3.20;;
76290;SDS011;65100;46.884;17.410;2023-07-28T08:53:19;7.73;;;3.13;;
76290;SDS011;65100;46.884;17.410;2023-07-28T08:55:45;7.33;;;3.30;;
76290;SDS011;65100;46.884;17.410;2023-07-28T08:58:29;6.55;;;3.00;;
76290;SDS011;65100;46.884;17.410;2023-07-28T09:00:54;6.20;;;3.10;;
76290;SDS011;65100;46.884;17.410;2023-07-28T09:03:20;7.07;;;2.92;;
76290;SDS011;65100;46.884;17.410;2023-07-28T09:05:47;6.60;;;3.15;;
76290;SDS011;65100;46.884;17.410;2023-07-28T09:08:14;6.97;;;3.20;;
76290;SDS011;65100;46.884;17.410;2023-07-28T09:13:14;6.88;;;3.40;;
76290;SDS011;65100;46.884;17.410;2023-07-28T09:15:41;8.52;;;4.13;;
76290;SDS011;65100;46.884;17.410;2023-07-28T09:18:10;6.57;;;3.10;;
76290;SDS011;65100;46.884;17.410;2023-07-28T09:20:40;6.38;;;3.13;;
76290;SDS011;65100;46.884;17.410;2023-07-28T09:23:07;8.20;;;3.30;;
76290;SDS011;65100;46.884;17.410;2023-07-28T09:25:33;7.03;;;3.00;;
76290;SDS011;65100;46.884;17.410;2023-07-28T09:28:03;7.77;;;3.40;;
76290;SDS011;65100;46.884;17.410;2023-07-28T09:30:42;7.22;;;3.20;;
76290;SDS011;65100;46.884;17.410;2023-07-28T09:33:12;6.82;;;3.05;;
76290;SDS011;65100;46.884;17.410;2023-07-28T09:35:48;7.30;;;3.30;;
76290;SDS011;65100;46.884;17.410;2023-07-28T09:38:14;7.70;;;3.20;;
76290;SDS011;65100;46.884;17.410;2023-07-28T09:40:41;6.43;;;3.00;;
76290;SDS011;65100;46.884;17.410;2023-07-28T09:43:07;9.77;;;3.17;;
76290;SDS011;65100;46.884;17.410;2023-07-28T09:45:32;7.57;;;3.15;;
76290;SDS011;65100;46.884;17.410;2023-07-28T09:47:59;7.13;;;3.25;;
76290;SDS011;65100;46.884;17.410;2023-07-28T09:50:27;6.20;;;3.00;;
76290;SDS011;65100;46.884;17.410;2023-07-28T09:52:58;7.45;;;2.95;;
76290;SDS011;65100;46.884;17.410;2023-07-28T09:55:26;7.60;;;3.10;;
76290;SDS011;65100;46.884;17.410;2023-07-28T09:57:54;6.13;;;2.97;;
76290;SDS011;65100;46.884;17.410;2023-07-28T10:00:21;6.38;;;2.90;;
76290;SDS011;65100;46.884;17.410;2023-07-28T10:02:47;5.97;;;2.90;;
76290;SDS011;65100;46.884;17.410;2023-07-28T10:05:13;6.63;;;3.20;;
76290;SDS011;65100;46.884;17.410;2023-07-28T10:07:40;6.10;;;3.10;;
76290;SDS011;65100;46.884;17.410;2023-07-28T10:10:08;6.50;;;3.40;;
76290;SDS011;65100;46.884;17.410;2023-07-28T10:12:40;6.37;;;3.20;;
76290;SDS011;65100;46.884;17.410;2023-07-28T10:15:13;7.13;;;3.40;;
76290;SDS011;65100;46.884;17.410;2023-07-28T10:17:47;6.80;;;3.15;;
76290;SDS011;65100;46.884;17.410;2023-07-28T10:20:38;6.28;;;3.03;;
76290;SDS011;65100;46.884;17.410;2023-07-28T10:23:06;7.00;;;3.40;;
76290;SDS011;65100;46.884;17.410;2023-07-28T10:25:39;6.97;;;3.37;;
76290;SDS011;65100;46.884;17.410;2023-07-28T10:28:06;6.50;;;3.25;;
76290;SDS011;65100;46.884;17.410;2023-07-28T10:30:36;7.00;;;3.30;;
76290;SDS011;65100;46.884;17.410;2023-07-28T10:33:03;7.07;;;3.30;;
76290;SDS011;65100;46.884;17.410;2023-07-28T10:35:29;6.15;;;3.17;;
76290;SDS011;65100;46.884;17.410;2023-07-28T10:37:57;8.03;;;3.50;;
76290;SDS011;65100;46.884;17.410;2023-07-28T10:42:55;6.22;;;3.30;;
76290;SDS011;65100;46.884;17.410;2023-07-28T10:45:25;7.53;;;3.40;;
76290;SDS011;65100;46.884;17.410;2023-07-28T10:47:52;6.93;;;3.10;;
76290;SDS011;65100;46.884;17.410;2023-07-28T10:50:20;6.18;;;3.00;;
76290;SDS011;65100;46.884;17.410;2023-07-28T10:52:47;7.57;;;3.20;;
76290;SDS011;65100;46.884;17.410;2023-07-28T10:55:13;7.90;;;3.20;;
76290;SDS011;65100;46.884;17.410;2023-07-28T10:57:47;6.57;;;3.17;;
76290;SDS011;65100;46.884;17.410;2023-07-28T11:00:20;7.15;;;3.13;;
76290;SDS011;65100;46.884;17.410;2023-07-28T11:02:48;6.90;;;3.05;;
76290;SDS011;65100;46.884;17.410;2023-07-28T11:05:19;6.60;;;3.15;;
76290;SDS011;65100;46.884;17.410;2023-07-28T11:07:49;7.57;;;3.40;;
76290;SDS011;65100;46.884;17.410;2023-07-28T11:10:17;6.43;;;3.10;;
76290;SDS011;65100;46.884;17.410;2023-07-28T11:12:44;8.45;;;3.13;;
76290;SDS011;65100;46.884;17.410;2023-07-28T11:15:11;6.28;;;3.05;;
76290;SDS011;65100;46.884;17.410;2023-07-28T11:17:49;10.48;;;3.60;;
76290;SDS011;65100;46.884;17.410;2023-07-28T11:23:03;5.77;;;3.00;;
76290;SDS011;65100;46.884;17.410;2023-07-28T11:25:29;5.88;;;3.10;;
76290;SDS011;65100;46.884;17.410;2023-07-28T11:27:56;5.88;;;2.78;;
76290;SDS011;65100;46.884;17.410;2023-07-28T11:30:23;6.70;;;3.30;;
76290;SDS011;65100;46.884;17.410;2023-07-28T11:32:50;6.53;;;3.00;;
76290;SDS011;65100;46.884;17.410;2023-07-28T11:35:18;7.40;;;3.10;;
76290;SDS011;65100;46.884;17.410;2023-07-28T11:37:52;9.77;;;3.10;;
76290;SDS011;65100;46.884;17.410;2023-07-28T11:40:19;12.52;;;3.20;;
76290;SDS011;65100;46.884;17.410;2023-07-28T11:42:50;6.50;;;3.10;;
76290;SDS011;65100;46.884;17.410;2023-07-28T11:45:18;6.45;;;2.97;;
76290;SDS011;65100;46.884;17.410;2023-07-28T11:50:25;8.48;;;2.90;;
76290;SDS011;65100;46.884;17.410;2023-07-28T11:52:52;5.93;;;2.90;;
76290;SDS011;65100;46.884;17.410;2023-07-28T11:55:18;5.77;;;2.83;;
76290;SDS011;65100;46.884;17.410;2023-07-28T11:57:45;7.00;;;2.97;;
76290;SDS011;65100;46.884;17.410;2023-07-28T12:00:11;6.57;;;2.92;;
76290;SDS011;65100;46.884;17.410;2023-07-28T12:02:41;6.30;;;2.90;;
76290;SDS011;65100;46.884;17.410;2023-07-28T12:05:13;6.87;;;2.77;;
76290;SDS011;65100;46.884;17.410;2023-07-28T12:07:40;6.53;;;2.92;;
76290;SDS011;65100;46.884;17.410;2023-07-28T12:10:06;6.70;;;3.20;;
76290;SDS011;65100;46.884;17.410;2023-07-28T12:12:40;7.33;;;3.00;;
76290;SDS011;65100;46.884;17.410;2023-07-28T12:21:00;8.02;;;3.10;;
76290;SDS011;65100;46.884;17.410;2023-07-28T12:23:25;8.20;;;3.10;;
76290;SDS011;65100;46.884;17.410;2023-07-28T12:25:51;7.50;;;3.40;;
76290;SDS011;65100;46.884;17.410;2023-07-28T12:28:18;7.13;;;3.03;;
76290;SDS011;65100;46.884;17.410;2023-07-28T12:30:44;6.63;;;3.40;;
76290;SDS011;65100;46.884;17.410;2023-07-28T12:33:09;8.73;;;3.30;;
76290;SDS011;65100;46.884;17.410;2023-07-28T12:35:35;6.40;;;2.90;;
76290;SDS011;65100;46.884;17.410;2023-07-28T12:38:01;6.47;;;3.27;;
76290;SDS011;65100;46.884;17.410;2023-07-28T12:40:30;9.20;;;3.25;;
76290;SDS011;65100;46.884;17.410;2023-07-28T12:42:57;8.02;;;3.40;;
76290;SDS011;65100;46.884;17.410;2023-07-28T12:45:23;8.40;;;3.47;;
76290;SDS011;65100;46.884;17.410;2023-07-28T12:47:51;6.60;;;3.20;;
76290;SDS011;65100;46.884;17.410;2023-07-28T12:50:20;7.15;;;3.00;;
76290;SDS011;65100;46.884;17.410;2023-07-28T12:52:47;7.65;;;3.20;;
76290;SDS011;65100;46.884;17.410;2023-07-28T12:55:13;6.32;;;3.20;;
76290;SDS011;65100;46.884;17.410;2023-07-28T12:57:39;6.90;;;3.20;;
76290;SDS011;65100;46.884;17.410;2023-07-28T13:00:05;8.18;;;3.22;;
76290;SDS011;65100;46.884;17.410;2023-07-28T13:02:40;11.95;;;2.97;;
76290;SDS011;65100;46.884;17.410;2023-07-28T13:05:06;9.23;;;3.30;;
76290;SDS011;65100;46.884;17.410;2023-07-28T13:07:35;8.10;;;3.23;;
76290;SDS011;65100;46.884;17.410;2023-07-28T13:10:00;6.93;;;3.33;;
76290;SDS011;65100;46.884;17.410;2023-07-28T13:12:26;8.60;;;3.40;;
76290;SDS011;65100;46.884;17.410;2023-07-28T13:14:51;8.07;;;3.40;;
76290;SDS011;65100;46.884;17.410;2023-07-28T13:17:17;7.47;;;3.13;;
76290;SDS011;65100;46.884;17.410;2023-07-28T13:19:42;7.30;;;3.20;;
76290;SDS011;65100;46.884;17.410;2023-07-28T13:22:07;6.73;;;3.30;;
76290;SDS011;65100;46.884;17.410;2023-07-28T13:24:33;7.07;;;3.00;;
76290;SDS011;65100;46.884;17.410;2023-07-28T13:26:58;7.38;;;3.03;;
76290;SDS011;65100;46.884;17.410;2023-07-28T13:29:24;6.47;;;3.30;;
76290;SDS011;65100;46.884;17.410;2023-07-28T13:31:49;5.87;;;3.13;;
76290;SDS011;65100;46.884;17.410;2023-07-28T13:34:15;6.18;;;2.95;;
76290;SDS011;65100;46.884;17.410;2023-07-28T13:36:40;7.30;;;3.03;;
76290;SDS011;65100;46.884;17.410;2023-07-28T13:39:08;7.60;;;3.00;;
76290;SDS011;65100;46.884;17.410;2023-07-28T13:41:33;7.57;;;3.03;;
76290;SDS011;65100;46.884;17.410;2023-07-28T13:43:59;6.30;;;3.10;;
76290;SDS011;65100;46.884;17.410;2023-07-28T13:46:24;6.40;;;3.13;;
76290;SDS011;65100;46.884;17.410;2023-07-28T13:48:50;5.78;;;2.83;;
76290;SDS011;65100;46.884;17.410;2023-07-28T13:51:15;12.27;;;3.30;;
76290;SDS011;65100;46.884;17.410;2023-07-28T13:53:41;6.70;;;2.95;;
76290;SDS011;65100;46.884;17.410;2023-07-28T13:56:06;6.63;;;2.77;;
76290;SDS011;65100;46.884;17.410;2023-07-28T13:58:32;8.07;;;3.10;;
76290;SDS011;65100;46.884;17.410;2023-07-28T14:00:57;6.87;;;2.97;;
76290;SDS011;65100;46.884;17.410;2023-07-28T14:03:23;6.63;;;3.00;;
76290;SDS011;65100;46.884;17.410;2023-07-28T14:05:48;8.07;;;3.22;;
76290;SDS011;65100;46.884;17.410;2023-07-28T14:08:13;7.10;;;2.87;;
76290;SDS011;65100;46.884;17.410;2023-07-28T14:10:43;6.13;;;3.00;;
76290;SDS011;65100;46.884;17.410;2023-07-28T14:13:09;7.07;;;3.20;;
76290;SDS011;65100;46.884;17.410;2023-07-28T14:15:34;7.18;;;2.92;;
76290;SDS011;65100;46.884;17.410;2023-07-28T14:18:00;6.73;;;2.80;;
76290;SDS011;65100;46.884;17.410;2023-07-28T14:20:25;6.33;;;3.00;;
76290;SDS011;65100;46.884;17.410;2023-07-28T14:22:51;7.43;;;3.00;;
76290;SDS011;65100;46.884;17.410;2023-07-28T14:25:16;5.80;;;3.00;;
76290;SDS011;65100;46.884;17.410;2023-07-28T14:27:41;8.65;;;2.83;;
76290;SDS011;65100;46.884;17.410;2023-07-28T14:30:07;6.80;;;2.97;;
76290;SDS011;65100;46.884;17.410;2023-07-28T14:32:33;6.30;;;2.95;;
76290;SDS011;65100;46.884;17.410;2023-07-28T14:34:58;6.27;;;3.07;;
76290;SDS011;65100;46.884;17.410;2023-07-28T14:37:24;6.80;;;3.10;;
76290;SDS011;65100;46.884;17.410;2023-07-28T14:39:49;6.60;;;3.20;;
76290;SDS011;65100;46.884;17.410;2023-07-28T14:42:15;5.80;;;2.87;;
76290;SDS011;65100;46.884;17.410;2023-07-28T14:44:40;6.50;;;3.00;;
76290;SDS011;65100;46.884;17.410;2023-07-28T14:47:06;8.00;;;2.80;;
76290;SDS011;65100;46.884;17.410;2023-07-28T14:49:31;6.67;;;2.70;;
76290;SDS011;65100;46.884;17.410;2023-07-28T14:51:57;6.40;;;2.90;;